sensor_id;sensor_type;location;lat;lon;timestamp;P1;durP1;ratioP1;P2;durP2;ratioP2
68214;SDS011;55036;52.138;5.236;2022-12-29T00:01:51;5.43;;;2.42;;
68214;SDS011;55036;52.138;5.236;2022-12-29T00:04:18;4.65;;;2.30;;
68214;SDS011;55036;52.138;5.236;2022-12-29T00:06:45;4.90;;;2.22;;
68214;SDS011;55036;52.138;5.236;2022-12-29T00:09:12;4.63;;;2.55;;
68214;SDS011;55036;52.138;5.236;2022-12-29T00:11:40;2.70;;;1.55;;
68214;SDS011;55036;52.138;5.236;2022-12-29T00:14:10;2.08;;;1.40;;
68214;SDS011;55036;52.138;5.236;2022-12-29T00:16:56;4.07;;;1.95;;
68214;SDS011;55036;52.138;5.236;2022-12-29T00:19:23;2.47;;;1.85;;
68214;SDS011;55036;52.138;5.236;2022-12-29T00:22:12;2.75;;;1.80;;
68214;SDS011;55036;52.138;5.236;2022-12-29T00:24:59;2.97;;;2.33;;
68214;SDS011;55036;52.138;5.236;2022-12-29T00:27:26;2.92;;;1.77;;
68214;SDS011;55036;52.138;5.236;2022-12-29T00:30:14;3.60;;;1.83;;
68214;SDS011;55036;52.138;5.236;2022-12-29T00:33:07;3.50;;;1.77;;
68214;SDS011;55036;52.138;5.236;2022-12-29T00:36:01;3.10;;;1.80;;
68214;SDS011;55036;52.138;5.236;2022-12-29T00:38:43;2.33;;;1.67;;
68214;SDS011;55036;52.138;5.236;2022-12-29T00:41:31;3.17;;;2.15;;
68214;SDS011;55036;52.138;5.236;2022-12-29T00:44:16;2.97;;;1.85;;
68214;SDS011;55036;52.138;5.236;2022-12-29T00:46:43;1.80;;;1.42;;
68214;SDS011;55036;52.138;5.236;2022-12-29T00:49:11;1.48;;;1.38;;
68214;SDS011;55036;52.138;5.236;2022-12-29T00:52:05;6.28;;;2.05;;
68214;SDS011;55036;52.138;5.236;2022-12-29T00:54:34;2.13;;;1.65;;
68214;SDS011;55036;52.138;5.236;2022-12-29T00:57:03;2.40;;;1.60;;
68214;SDS011;55036;52.138;5.236;2022-12-29T00:59:34;1.83;;;1.30;;
68214;SDS011;55036;52.138;5.236;2022-12-29T01:02:01;2.58;;;1.35;;
68214;SDS011;55036;52.138;5.236;2022-12-29T01:04:28;2.30;;;1.50;;
68214;SDS011;55036;52.138;5.236;2022-12-29T01:06:55;2.95;;;1.50;;
68214;SDS011;55036;52.138;5.236;2022-12-29T01:09:22;3.28;;;1.60;;
68214;SDS011;55036;52.138;5.236;2022-12-29T01:12:07;2.25;;;1.55;;
68214;SDS011;55036;52.138;5.236;2022-12-29T01:14:35;2.88;;;1.50;;
68214;SDS011;55036;52.138;5.236;2022-12-29T01:17:02;3.03;;;1.45;;
68214;SDS011;55036;52.138;5.236;2022-12-29T01:19:30;1.60;;;1.25;;
68214;SDS011;55036;52.138;5.236;2022-12-29T01:21:57;2.95;;;1.70;;
68214;SDS011;55036;52.138;5.236;2022-12-29T01:24:23;3.58;;;1.63;;
68214;SDS011;55036;52.138;5.236;2022-12-29T01:26:52;4.43;;;1.70;;
68214;SDS011;55036;52.138;5.236;2022-12-29T01:29:20;4.30;;;1.90;;
68214;SDS011;55036;52.138;5.236;2022-12-29T01:31:47;4.25;;;1.77;;
68214;SDS011;55036;52.138;5.236;2022-12-29T01:34:15;3.92;;;2.00;;
68214;SDS011;55036;52.138;5.236;2022-12-29T01:36:43;2.78;;;1.60;;
68214;SDS011;55036;52.138;5.236;2022-12-29T01:39:10;2.58;;;2.38;;
68214;SDS011;55036;52.138;5.236;2022-12-29T01:41:37;3.15;;;2.05;;
68214;SDS011;55036;52.138;5.236;2022-12-29T01:44:39;4.53;;;1.80;;
68214;SDS011;55036;52.138;5.236;2022-12-29T01:47:08;2.13;;;1.67;;
68214;SDS011;55036;52.138;5.236;2022-12-29T01:49:35;3.13;;;1.80;;
68214;SDS011;55036;52.138;5.236;2022-12-29T01:52:03;2.50;;;1.92;;
68214;SDS011;55036;52.138;5.236;2022-12-29T01:54:35;2.15;;;1.83;;
68214;SDS011;55036;52.138;5.236;2022-12-29T01:57:07;4.53;;;1.85;;
68214;SDS011;55036;52.138;5.236;2022-12-29T01:59:38;1.95;;;1.73;;
68214;SDS011;55036;52.138;5.236;2022-12-29T02:02:08;2.33;;;1.63;;
68214;SDS011;55036;52.138;5.236;2022-12-29T02:04:35;2.22;;;1.45;;
68214;SDS011;55036;52.138;5.236;2022-12-29T02:07:07;3.88;;;1.70;;
68214;SDS011;55036;52.138;5.236;2022-12-29T02:09:40;2.40;;;1.73;;
68214;SDS011;55036;52.138;5.236;2022-12-29T02:12:08;1.85;;;1.60;;
68214;SDS011;55036;52.138;5.236;2022-12-29T02:14:36;3.17;;;1.20;;
68214;SDS011;55036;52.138;5.236;2022-12-29T02:25:05;3.08;;;1.50;;
68214;SDS011;55036;52.138;5.236;2022-12-29T02:28:02;4.50;;;1.35;;
68214;SDS011;55036;52.138;5.236;2022-12-29T02:30:50;2.85;;;1.33;;
68214;SDS011;55036;52.138;5.236;2022-12-29T02:33:51;2.17;;;1.40;;
68214;SDS011;55036;52.138;5.236;2022-12-29T02:36:42;4.15;;;1.20;;
68214;SDS011;55036;52.138;5.236;2022-12-29T02:45:05;5.15;;;1.30;;
68214;SDS011;55036;52.138;5.236;2022-12-29T02:50:14;2.95;;;0.77;;
68214;SDS011;55036;52.138;5.236;2022-12-29T02:52:46;4.68;;;1.00;;
68214;SDS011;55036;52.138;5.236;2022-12-29T02:55:18;4.38;;;0.85;;
68214;SDS011;55036;52.138;5.236;2022-12-29T02:57:44;5.05;;;1.00;;
68214;SDS011;55036;52.138;5.236;2022-12-29T03:00:15;4.57;;;0.73;;
68214;SDS011;55036;52.138;5.236;2022-12-29T03:02:57;4.82;;;1.45;;
68214;SDS011;55036;52.138;5.236;2022-12-29T03:05:42;3.47;;;0.60;;
68214;SDS011;55036;52.138;5.236;2022-12-29T03:11:58;1.42;;;0.68;;
68214;SDS011;55036;52.138;5.236;2022-12-29T03:20:53;2.58;;;0.50;;
68214;SDS011;55036;52.138;5.236;2022-12-29T03:23:43;2.90;;;0.80;;
68214;SDS011;55036;52.138;5.236;2022-12-29T03:26:14;5.30;;;0.65;;
68214;SDS011;55036;52.138;5.236;2022-12-29T03:28:48;2.75;;;0.50;;
68214;SDS011;55036;52.138;5.236;2022-12-29T03:31:19;2.13;;;0.50;;
68214;SDS011;55036;52.138;5.236;2022-12-29T03:33:47;4.07;;;0.80;;
68214;SDS011;55036;52.138;5.236;2022-12-29T03:36:17;2.42;;;0.65;;
68214;SDS011;55036;52.138;5.236;2022-12-29T03:38:59;4.55;;;0.60;;
68214;SDS011;55036;52.138;5.236;2022-12-29T03:41:32;2.08;;;0.70;;
68214;SDS011;55036;52.138;5.236;2022-12-29T03:44:00;3.28;;;0.57;;
68214;SDS011;55036;52.138;5.236;2022-12-29T03:46:27;1.48;;;0.70;;
68214;SDS011;55036;52.138;5.236;2022-12-29T03:48:53;2.35;;;0.60;;
68214;SDS011;55036;52.138;5.236;2022-12-29T03:51:20;4.55;;;0.70;;
68214;SDS011;55036;52.138;5.236;2022-12-29T03:53:47;1.00;;;0.40;;
68214;SDS011;55036;52.138;5.236;2022-12-29T03:56:13;2.00;;;0.63;;
68214;SDS011;55036;52.138;5.236;2022-12-29T03:58:40;2.83;;;0.85;;
68214;SDS011;55036;52.138;5.236;2022-12-29T04:01:07;1.10;;;0.68;;
68214;SDS011;55036;52.138;5.236;2022-12-29T04:03:34;2.55;;;0.90;;
68214;SDS011;55036;52.138;5.236;2022-12-29T04:06:00;5.03;;;1.35;;
68214;SDS011;55036;52.138;5.236;2022-12-29T04:08:27;5.00;;;0.82;;
68214;SDS011;55036;52.138;5.236;2022-12-29T04:10:54;3.13;;;0.90;;
68214;SDS011;55036;52.138;5.236;2022-12-29T04:13:21;3.35;;;0.90;;
68214;SDS011;55036;52.138;5.236;2022-12-29T04:15:47;5.90;;;0.90;;
68214;SDS011;55036;52.138;5.236;2022-12-29T04:18:14;5.35;;;0.90;;
68214;SDS011;55036;52.138;5.236;2022-12-29T04:20:43;3.25;;;1.00;;
68214;SDS011;55036;52.138;5.236;2022-12-29T04:23:26;3.13;;;0.93;;
68214;SDS011;55036;52.138;5.236;2022-12-29T04:25:53;5.47;;;1.38;;
68214;SDS011;55036;52.138;5.236;2022-12-29T04:28:20;4.95;;;0.82;;
68214;SDS011;55036;52.138;5.236;2022-12-29T04:30:47;5.00;;;0.85;;
68214;SDS011;55036;52.138;5.236;2022-12-29T04:33:13;5.25;;;1.13;;
68214;SDS011;55036;52.138;5.236;2022-12-29T04:35:41;6.03;;;1.20;;
68214;SDS011;55036;52.138;5.236;2022-12-29T04:38:09;3.13;;;1.02;;
68214;SDS011;55036;52.138;5.236;2022-12-29T04:40:37;5.43;;;1.10;;
68214;SDS011;55036;52.138;5.236;2022-12-29T04:43:06;4.38;;;0.90;;
68214;SDS011;55036;52.138;5.236;2022-12-29T04:45:33;7.07;;;1.05;;
68214;SDS011;55036;52.138;5.236;2022-12-29T04:47:59;8.55;;;1.02;;
68214;SDS011;55036;52.138;5.236;2022-12-29T04:50:26;5.72;;;0.93;;
68214;SDS011;55036;52.138;5.236;2022-12-29T04:52:53;5.00;;;1.35;;
68214;SDS011;55036;52.138;5.236;2022-12-29T04:55:20;4.10;;;1.08;;
68214;SDS011;55036;52.138;5.236;2022-12-29T04:57:47;5.95;;;1.20;;
68214;SDS011;55036;52.138;5.236;2022-12-29T05:00:14;6.05;;;1.05;;
68214;SDS011;55036;52.138;5.236;2022-12-29T05:02:40;2.47;;;0.55;;
68214;SDS011;55036;52.138;5.236;2022-12-29T05:05:08;5.13;;;1.00;;
68214;SDS011;55036;52.138;5.236;2022-12-29T05:07:35;5.68;;;1.00;;
68214;SDS011;55036;52.138;5.236;2022-12-29T05:10:01;4.47;;;1.08;;
68214;SDS011;55036;52.138;5.236;2022-12-29T05:12:29;8.85;;;1.77;;
68214;SDS011;55036;52.138;5.236;2022-12-29T05:14:59;5.65;;;1.10;;
68214;SDS011;55036;52.138;5.236;2022-12-29T05:17:26;4.45;;;0.90;;
68214;SDS011;55036;52.138;5.236;2022-12-29T05:19:53;11.70;;;1.33;;
68214;SDS011;55036;52.138;5.236;2022-12-29T05:22:20;6.57;;;1.10;;
68214;SDS011;55036;52.138;5.236;2022-12-29T05:24:47;13.40;;;1.52;;
68214;SDS011;55036;52.138;5.236;2022-12-29T05:27:13;10.23;;;1.23;;
68214;SDS011;55036;52.138;5.236;2022-12-29T05:29:40;8.38;;;1.60;;
68214;SDS011;55036;52.138;5.236;2022-12-29T05:32:07;4.57;;;1.20;;
68214;SDS011;55036;52.138;5.236;2022-12-29T05:34:33;7.97;;;1.70;;
68214;SDS011;55036;52.138;5.236;2022-12-29T05:37:00;5.43;;;1.00;;
68214;SDS011;55036;52.138;5.236;2022-12-29T05:39:28;6.40;;;1.05;;
68214;SDS011;55036;52.138;5.236;2022-12-29T05:41:55;7.65;;;1.42;;
68214;SDS011;55036;52.138;5.236;2022-12-29T05:44:22;9.55;;;1.30;;
68214;SDS011;55036;52.138;5.236;2022-12-29T05:46:49;13.65;;;1.63;;
68214;SDS011;55036;52.138;5.236;2022-12-29T05:49:16;12.25;;;1.23;;
68214;SDS011;55036;52.138;5.236;2022-12-29T05:51:43;9.18;;;1.25;;
68214;SDS011;55036;52.138;5.236;2022-12-29T05:54:10;12.57;;;1.50;;
68214;SDS011;55036;52.138;5.236;2022-12-29T05:56:36;12.80;;;2.08;;
68214;SDS011;55036;52.138;5.236;2022-12-29T05:59:03;14.55;;;2.47;;
68214;SDS011;55036;52.138;5.236;2022-12-29T06:01:30;7.47;;;0.95;;
68214;SDS011;55036;52.138;5.236;2022-12-29T06:03:56;7.07;;;1.00;;
68214;SDS011;55036;52.138;5.236;2022-12-29T06:06:23;10.73;;;1.48;;
68214;SDS011;55036;52.138;5.236;2022-12-29T06:08:50;11.73;;;1.77;;
68214;SDS011;55036;52.138;5.236;2022-12-29T06:11:16;8.10;;;1.60;;
68214;SDS011;55036;52.138;5.236;2022-12-29T06:13:43;9.93;;;1.77;;
68214;SDS011;55036;52.138;5.236;2022-12-29T06:16:10;12.75;;;1.95;;
68214;SDS011;55036;52.138;5.236;2022-12-29T06:18:36;12.52;;;2.03;;
68214;SDS011;55036;52.138;5.236;2022-12-29T06:21:04;16.40;;;2.15;;
68214;SDS011;55036;52.138;5.236;2022-12-29T06:23:31;9.35;;;1.15;;
68214;SDS011;55036;52.138;5.236;2022-12-29T06:25:58;10.05;;;1.52;;
68214;SDS011;55036;52.138;5.236;2022-12-29T06:28:25;10.43;;;1.40;;
68214;SDS011;55036;52.138;5.236;2022-12-29T06:30:51;10.77;;;2.05;;
68214;SDS011;55036;52.138;5.236;2022-12-29T06:33:18;11.48;;;1.83;;
68214;SDS011;55036;52.138;5.236;2022-12-29T06:35:45;9.68;;;1.65;;
68214;SDS011;55036;52.138;5.236;2022-12-29T06:38:12;6.65;;;1.45;;
68214;SDS011;55036;52.138;5.236;2022-12-29T06:40:39;7.97;;;1.77;;
68214;SDS011;55036;52.138;5.236;2022-12-29T06:43:07;14.45;;;2.30;;
68214;SDS011;55036;52.138;5.236;2022-12-29T06:45:33;11.68;;;1.55;;
68214;SDS011;55036;52.138;5.236;2022-12-29T06:48:00;10.85;;;1.58;;
68214;SDS011;55036;52.138;5.236;2022-12-29T06:50:27;10.98;;;1.60;;
68214;SDS011;55036;52.138;5.236;2022-12-29T06:52:53;9.77;;;1.83;;
68214;SDS011;55036;52.138;5.236;2022-12-29T06:55:20;10.57;;;1.60;;
68214;SDS011;55036;52.138;5.236;2022-12-29T06:57:47;17.08;;;1.95;;
68214;SDS011;55036;52.138;5.236;2022-12-29T07:00:14;13.63;;;2.13;;
68214;SDS011;55036;52.138;5.236;2022-12-29T07:02:47;11.55;;;1.88;;
68214;SDS011;55036;52.138;5.236;2022-12-29T07:05:14;11.57;;;1.40;;
68214;SDS011;55036;52.138;5.236;2022-12-29T07:07:41;7.53;;;1.55;;
68214;SDS011;55036;52.138;5.236;2022-12-29T07:10:08;9.40;;;1.40;;
68214;SDS011;55036;52.138;5.236;2022-12-29T07:12:34;10.85;;;1.80;;
68214;SDS011;55036;52.138;5.236;2022-12-29T07:15:01;15.68;;;1.80;;
68214;SDS011;55036;52.138;5.236;2022-12-29T07:17:28;8.05;;;1.27;;
68214;SDS011;55036;52.138;5.236;2022-12-29T07:19:54;7.95;;;1.58;;
68214;SDS011;55036;52.138;5.236;2022-12-29T07:22:21;8.98;;;2.15;;
68214;SDS011;55036;52.138;5.236;2022-12-29T07:24:48;8.13;;;1.05;;
68214;SDS011;55036;52.138;5.236;2022-12-29T07:27:14;8.70;;;1.45;;
68214;SDS011;55036;52.138;5.236;2022-12-29T07:29:41;9.23;;;1.60;;
68214;SDS011;55036;52.138;5.236;2022-12-29T07:32:08;6.22;;;1.10;;
68214;SDS011;55036;52.138;5.236;2022-12-29T07:34:35;8.32;;;1.08;;
68214;SDS011;55036;52.138;5.236;2022-12-29T07:37:01;2.97;;;0.98;;
68214;SDS011;55036;52.138;5.236;2022-12-29T07:39:28;4.90;;;1.38;;
68214;SDS011;55036;52.138;5.236;2022-12-29T07:41:55;5.25;;;1.40;;
68214;SDS011;55036;52.138;5.236;2022-12-29T07:44:29;6.70;;;1.40;;
68214;SDS011;55036;52.138;5.236;2022-12-29T07:46:56;9.38;;;2.30;;
68214;SDS011;55036;52.138;5.236;2022-12-29T07:49:24;9.80;;;1.70;;
68214;SDS011;55036;52.138;5.236;2022-12-29T07:51:51;10.55;;;1.80;;
68214;SDS011;55036;52.138;5.236;2022-12-29T07:54:18;9.07;;;1.85;;
68214;SDS011;55036;52.138;5.236;2022-12-29T07:56:45;10.75;;;2.30;;
68214;SDS011;55036;52.138;5.236;2022-12-29T07:59:12;8.10;;;1.30;;
68214;SDS011;55036;52.138;5.236;2022-12-29T08:01:38;8.98;;;1.33;;
68214;SDS011;55036;52.138;5.236;2022-12-29T08:04:05;16.50;;;1.90;;
68214;SDS011;55036;52.138;5.236;2022-12-29T08:06:32;10.88;;;1.80;;
68214;SDS011;55036;52.138;5.236;2022-12-29T08:08:59;9.13;;;1.45;;
68214;SDS011;55036;52.138;5.236;2022-12-29T08:11:36;8.45;;;1.45;;
68214;SDS011;55036;52.138;5.236;2022-12-29T08:14:03;10.27;;;2.22;;
68214;SDS011;55036;52.138;5.236;2022-12-29T08:16:30;7.32;;;1.52;;
68214;SDS011;55036;52.138;5.236;2022-12-29T08:18:56;11.95;;;2.47;;
68214;SDS011;55036;52.138;5.236;2022-12-29T08:21:23;10.45;;;1.50;;
68214;SDS011;55036;52.138;5.236;2022-12-29T08:23:50;15.23;;;1.95;;
68214;SDS011;55036;52.138;5.236;2022-12-29T08:26:16;10.38;;;2.25;;
68214;SDS011;55036;52.138;5.236;2022-12-29T08:28:43;7.97;;;2.20;;
68214;SDS011;55036;52.138;5.236;2022-12-29T08:31:10;10.55;;;1.73;;
68214;SDS011;55036;52.138;5.236;2022-12-29T08:33:37;5.97;;;1.48;;
68214;SDS011;55036;52.138;5.236;2022-12-29T08:36:05;4.80;;;1.02;;
68214;SDS011;55036;52.138;5.236;2022-12-29T08:38:33;9.82;;;2.00;;
68214;SDS011;55036;52.138;5.236;2022-12-29T08:40:59;12.10;;;1.77;;
68214;SDS011;55036;52.138;5.236;2022-12-29T08:43:29;10.55;;;1.92;;
68214;SDS011;55036;52.138;5.236;2022-12-29T08:45:57;10.90;;;1.65;;
68214;SDS011;55036;52.138;5.236;2022-12-29T08:48:24;9.93;;;1.42;;
68214;SDS011;55036;52.138;5.236;2022-12-29T08:50:52;10.98;;;1.45;;
68214;SDS011;55036;52.138;5.236;2022-12-29T08:53:19;12.90;;;2.08;;
68214;SDS011;55036;52.138;5.236;2022-12-29T08:55:46;12.00;;;2.15;;
68214;SDS011;55036;52.138;5.236;2022-12-29T08:58:13;9.00;;;1.88;;
68214;SDS011;55036;52.138;5.236;2022-12-29T09:00:41;9.57;;;1.83;;
68214;SDS011;55036;52.138;5.236;2022-12-29T09:03:08;9.13;;;1.42;;
68214;SDS011;55036;52.138;5.236;2022-12-29T09:05:35;18.08;;;3.15;;
68214;SDS011;55036;52.138;5.236;2022-12-29T09:08:02;10.45;;;2.10;;
68214;SDS011;55036;52.138;5.236;2022-12-29T09:10:30;9.23;;;2.15;;
68214;SDS011;55036;52.138;5.236;2022-12-29T09:12:57;12.38;;;2.10;;
68214;SDS011;55036;52.138;5.236;2022-12-29T09:15:24;8.38;;;1.55;;
68214;SDS011;55036;52.138;5.236;2022-12-29T09:17:50;10.45;;;1.90;;
68214;SDS011;55036;52.138;5.236;2022-12-29T09:20:18;15.18;;;1.80;;
68214;SDS011;55036;52.138;5.236;2022-12-29T09:22:46;8.00;;;1.23;;
68214;SDS011;55036;52.138;5.236;2022-12-29T09:25:13;11.02;;;1.60;;
68214;SDS011;55036;52.138;5.236;2022-12-29T09:27:40;8.45;;;1.27;;
68214;SDS011;55036;52.138;5.236;2022-12-29T09:30:08;10.48;;;1.90;;
68214;SDS011;55036;52.138;5.236;2022-12-29T09:32:36;7.88;;;1.38;;
68214;SDS011;55036;52.138;5.236;2022-12-29T09:35:10;12.93;;;1.90;;
68214;SDS011;55036;52.138;5.236;2022-12-29T09:37:37;10.63;;;2.47;;
68214;SDS011;55036;52.138;5.236;2022-12-29T09:40:04;11.18;;;1.55;;
68214;SDS011;55036;52.138;5.236;2022-12-29T09:42:39;8.48;;;1.92;;
68214;SDS011;55036;52.138;5.236;2022-12-29T09:45:14;7.63;;;1.40;;
68214;SDS011;55036;52.138;5.236;2022-12-29T09:47:44;7.03;;;1.63;;
68214;SDS011;55036;52.138;5.236;2022-12-29T09:53:01;9.40;;;1.80;;
68214;SDS011;55036;52.138;5.236;2022-12-29T09:55:53;13.30;;;1.67;;
68214;SDS011;55036;52.138;5.236;2022-12-29T09:58:27;8.18;;;1.52;;
68214;SDS011;55036;52.138;5.236;2022-12-29T10:01:23;10.55;;;1.83;;
68214;SDS011;55036;52.138;5.236;2022-12-29T10:03:56;6.03;;;1.33;;
68214;SDS011;55036;52.138;5.236;2022-12-29T10:09:34;10.02;;;1.80;;
68214;SDS011;55036;52.138;5.236;2022-12-29T10:12:16;7.68;;;1.90;;
68214;SDS011;55036;52.138;5.236;2022-12-29T10:15:04;10.75;;;1.92;;
68214;SDS011;55036;52.138;5.236;2022-12-29T10:20:23;6.80;;;1.50;;
68214;SDS011;55036;52.138;5.236;2022-12-29T10:23:04;8.38;;;1.67;;
68214;SDS011;55036;52.138;5.236;2022-12-29T10:25:41;10.00;;;1.58;;
68214;SDS011;55036;52.138;5.236;2022-12-29T10:28:56;10.85;;;1.70;;
68214;SDS011;55036;52.138;5.236;2022-12-29T10:31:13;8.57;;;1.70;;
68214;SDS011;55036;52.138;5.236;2022-12-29T10:34:06;11.20;;;1.70;;
68214;SDS011;55036;52.138;5.236;2022-12-29T10:36:44;9.38;;;1.65;;
68214;SDS011;55036;52.138;5.236;2022-12-29T10:39:22;9.20;;;1.33;;
68214;SDS011;55036;52.138;5.236;2022-12-29T10:44:51;9.63;;;1.60;;
68214;SDS011;55036;52.138;5.236;2022-12-29T10:47:24;6.97;;;1.70;;
68214;SDS011;55036;52.138;5.236;2022-12-29T10:49:54;10.18;;;2.50;;
68214;SDS011;55036;52.138;5.236;2022-12-29T10:52:24;11.82;;;2.03;;
68214;SDS011;55036;52.138;5.236;2022-12-29T10:57:26;13.02;;;2.22;;
68214;SDS011;55036;52.138;5.236;2022-12-29T10:59:57;16.08;;;2.70;;
68214;SDS011;55036;52.138;5.236;2022-12-29T11:07:58;16.15;;;2.83;;
68214;SDS011;55036;52.138;5.236;2022-12-29T11:13:04;12.95;;;2.63;;
68214;SDS011;55036;52.138;5.236;2022-12-29T11:15:45;15.30;;;4.63;;
68214;SDS011;55036;52.138;5.236;2022-12-29T11:20:54;17.70;;;2.90;;
68214;SDS011;55036;52.138;5.236;2022-12-29T11:23:27;19.30;;;2.92;;
68214;SDS011;55036;52.138;5.236;2022-12-29T11:28:37;14.85;;;3.22;;
68214;SDS011;55036;52.138;5.236;2022-12-29T11:31:05;17.88;;;3.42;;
68214;SDS011;55036;52.138;5.236;2022-12-29T11:33:38;16.30;;;3.25;;
68214;SDS011;55036;52.138;5.236;2022-12-29T11:36:16;16.15;;;2.88;;
68214;SDS011;55036;52.138;5.236;2022-12-29T11:38:50;11.40;;;2.58;;
68214;SDS011;55036;52.138;5.236;2022-12-29T11:41:22;15.82;;;2.53;;
68214;SDS011;55036;52.138;5.236;2022-12-29T11:43:52;16.90;;;2.95;;
68214;SDS011;55036;52.138;5.236;2022-12-29T11:46:29;12.95;;;3.30;;
68214;SDS011;55036;52.138;5.236;2022-12-29T11:48:58;11.25;;;2.80;;
68214;SDS011;55036;52.138;5.236;2022-12-29T11:51:27;10.90;;;2.55;;
68214;SDS011;55036;52.138;5.236;2022-12-29T11:53:57;20.48;;;3.83;;
68214;SDS011;55036;52.138;5.236;2022-12-29T11:56:33;13.43;;;2.65;;
68214;SDS011;55036;52.138;5.236;2022-12-29T12:02:07;13.05;;;3.85;;
68214;SDS011;55036;52.138;5.236;2022-12-29T12:04:42;15.93;;;3.05;;
68214;SDS011;55036;52.138;5.236;2022-12-29T12:07:14;17.27;;;3.63;;
68214;SDS011;55036;52.138;5.236;2022-12-29T12:09:50;24.20;;;3.10;;
68214;SDS011;55036;52.138;5.236;2022-12-29T12:12:34;10.70;;;2.17;;
68214;SDS011;55036;52.138;5.236;2022-12-29T12:15:08;16.67;;;3.17;;
68214;SDS011;55036;52.138;5.236;2022-12-29T12:17:49;16.92;;;3.38;;
68214;SDS011;55036;52.138;5.236;2022-12-29T12:20:24;20.02;;;3.13;;
68214;SDS011;55036;52.138;5.236;2022-12-29T12:23:43;11.95;;;2.65;;
68214;SDS011;55036;52.138;5.236;2022-12-29T12:26:04;18.63;;;2.88;;
68214;SDS011;55036;52.138;5.236;2022-12-29T12:28:37;18.55;;;3.47;;
68214;SDS011;55036;52.138;5.236;2022-12-29T12:31:17;17.67;;;3.22;;
68214;SDS011;55036;52.138;5.236;2022-12-29T12:34:05;19.95;;;3.10;;
68214;SDS011;55036;52.138;5.236;2022-12-29T12:36:45;15.13;;;2.67;;
68214;SDS011;55036;52.138;5.236;2022-12-29T12:39:25;12.20;;;2.33;;
68214;SDS011;55036;52.138;5.236;2022-12-29T12:50:18;17.90;;;3.42;;
68214;SDS011;55036;52.138;5.236;2022-12-29T12:53:05;15.85;;;2.88;;
68214;SDS011;55036;52.138;5.236;2022-12-29T12:58:35;16.48;;;3.20;;
68214;SDS011;55036;52.138;5.236;2022-12-29T13:04:28;14.30;;;2.13;;
68214;SDS011;55036;52.138;5.236;2022-12-29T13:07:12;14.43;;;2.30;;
68214;SDS011;55036;52.138;5.236;2022-12-29T13:09:48;10.85;;;2.20;;
68214;SDS011;55036;52.138;5.236;2022-12-29T13:15:39;12.23;;;2.42;;
68214;SDS011;55036;52.138;5.236;2022-12-29T13:18:21;17.40;;;2.40;;
68214;SDS011;55036;52.138;5.236;2022-12-29T13:24:02;13.25;;;2.33;;
68214;SDS011;55036;52.138;5.236;2022-12-29T13:26:43;10.48;;;2.00;;
68214;SDS011;55036;52.138;5.236;2022-12-29T13:29:36;11.07;;;2.08;;
68214;SDS011;55036;52.138;5.236;2022-12-29T13:40:41;16.58;;;2.20;;
68214;SDS011;55036;52.138;5.236;2022-12-29T13:43:12;12.90;;;2.10;;
68214;SDS011;55036;52.138;5.236;2022-12-29T13:45:41;21.40;;;4.20;;
68214;SDS011;55036;52.138;5.236;2022-12-29T13:48:18;13.38;;;2.47;;
68214;SDS011;55036;52.138;5.236;2022-12-29T13:50:55;13.93;;;2.42;;
68214;SDS011;55036;52.138;5.236;2022-12-29T13:58:53;15.02;;;3.05;;
68214;SDS011;55036;52.138;5.236;2022-12-29T14:04:20;13.38;;;2.45;;
68214;SDS011;55036;52.138;5.236;2022-12-29T14:07:00;16.67;;;3.17;;
68214;SDS011;55036;52.138;5.236;2022-12-29T14:15:04;7.75;;;3.30;;
68214;SDS011;55036;52.138;5.236;2022-12-29T14:17:37;14.63;;;3.33;;
68214;SDS011;55036;52.138;5.236;2022-12-29T14:20:15;8.38;;;4.38;;
68214;SDS011;55036;52.138;5.236;2022-12-29T14:23:01;7.18;;;2.00;;
68214;SDS011;55036;52.138;5.236;2022-12-29T14:28:38;8.02;;;2.70;;
68214;SDS011;55036;52.138;5.236;2022-12-29T14:36:34;7.32;;;1.80;;
68214;SDS011;55036;52.138;5.236;2022-12-29T14:39:29;7.32;;;1.40;;
68214;SDS011;55036;52.138;5.236;2022-12-29T14:50:06;9.10;;;3.13;;
68214;SDS011;55036;52.138;5.236;2022-12-29T14:55:43;7.50;;;1.67;;
68214;SDS011;55036;52.138;5.236;2022-12-29T15:00:54;7.05;;;2.00;;
68214;SDS011;55036;52.138;5.236;2022-12-29T15:03:32;11.45;;;2.10;;
68214;SDS011;55036;52.138;5.236;2022-12-29T15:06:11;6.60;;;2.05;;
68214;SDS011;55036;52.138;5.236;2022-12-29T15:08:54;9.73;;;1.55;;
68214;SDS011;55036;52.138;5.236;2022-12-29T15:11:43;11.63;;;2.63;;
68214;SDS011;55036;52.138;5.236;2022-12-29T15:17:25;11.00;;;3.33;;
68214;SDS011;55036;52.138;5.236;2022-12-29T15:19:54;10.82;;;2.00;;
68214;SDS011;55036;52.138;5.236;2022-12-29T15:22:22;9.90;;;2.17;;
68214;SDS011;55036;52.138;5.236;2022-12-29T15:24:50;10.05;;;1.80;;
68214;SDS011;55036;52.138;5.236;2022-12-29T15:27:20;10.65;;;1.83;;
68214;SDS011;55036;52.138;5.236;2022-12-29T15:29:55;9.52;;;2.70;;
68214;SDS011;55036;52.138;5.236;2022-12-29T15:32:28;9.00;;;2.72;;
68214;SDS011;55036;52.138;5.236;2022-12-29T15:35:20;12.98;;;2.35;;
68214;SDS011;55036;52.138;5.236;2022-12-29T15:37:48;10.75;;;3.45;;
68214;SDS011;55036;52.138;5.236;2022-12-29T15:40:28;11.25;;;2.88;;
68214;SDS011;55036;52.138;5.236;2022-12-29T15:45:33;12.35;;;3.60;;
68214;SDS011;55036;52.138;5.236;2022-12-29T15:48:01;10.75;;;3.63;;
68214;SDS011;55036;52.138;5.236;2022-12-29T15:50:31;10.15;;;3.72;;
68214;SDS011;55036;52.138;5.236;2022-12-29T15:52:59;11.73;;;4.35;;
68214;SDS011;55036;52.138;5.236;2022-12-29T15:55:34;10.18;;;3.95;;
68214;SDS011;55036;52.138;5.236;2022-12-29T15:58:04;10.18;;;3.15;;
68214;SDS011;55036;52.138;5.236;2022-12-29T16:00:45;11.02;;;3.65;;
68214;SDS011;55036;52.138;5.236;2022-12-29T16:05:42;9.05;;;1.77;;
68214;SDS011;55036;52.138;5.236;2022-12-29T16:08:36;9.65;;;3.40;;
68214;SDS011;55036;52.138;5.236;2022-12-29T16:11:29;13.77;;;4.28;;
68214;SDS011;55036;52.138;5.236;2022-12-29T16:13:55;7.50;;;2.92;;
68214;SDS011;55036;52.138;5.236;2022-12-29T16:16:32;9.52;;;2.60;;
68214;SDS011;55036;52.138;5.236;2022-12-29T16:19:08;5.38;;;2.40;;
68214;SDS011;55036;52.138;5.236;2022-12-29T16:21:49;5.75;;;2.10;;
68214;SDS011;55036;52.138;5.236;2022-12-29T16:24:21;12.60;;;3.00;;
68214;SDS011;55036;52.138;5.236;2022-12-29T16:26:54;15.15;;;3.33;;
68214;SDS011;55036;52.138;5.236;2022-12-29T16:29:42;7.28;;;2.42;;
68214;SDS011;55036;52.138;5.236;2022-12-29T16:32:29;11.50;;;3.00;;
68214;SDS011;55036;52.138;5.236;2022-12-29T16:35:12;8.48;;;2.65;;
68214;SDS011;55036;52.138;5.236;2022-12-29T16:37:43;12.50;;;3.30;;
68214;SDS011;55036;52.138;5.236;2022-12-29T16:42:46;8.85;;;2.20;;
68214;SDS011;55036;52.138;5.236;2022-12-29T16:50:31;8.55;;;2.33;;
68214;SDS011;55036;52.138;5.236;2022-12-29T16:53:01;9.30;;;2.42;;
68214;SDS011;55036;52.138;5.236;2022-12-29T16:55:29;7.60;;;2.10;;
68214;SDS011;55036;52.138;5.236;2022-12-29T16:57:56;7.50;;;2.42;;
68214;SDS011;55036;52.138;5.236;2022-12-29T17:00:34;7.88;;;1.27;;
68214;SDS011;55036;52.138;5.236;2022-12-29T17:03:02;6.97;;;2.38;;
68214;SDS011;55036;52.138;5.236;2022-12-29T17:05:29;9.05;;;1.83;;
68214;SDS011;55036;52.138;5.236;2022-12-29T17:07:56;12.43;;;2.13;;
68214;SDS011;55036;52.138;5.236;2022-12-29T17:10:26;5.40;;;1.58;;
68214;SDS011;55036;52.138;5.236;2022-12-29T17:13:13;10.23;;;2.03;;
68214;SDS011;55036;52.138;5.236;2022-12-29T17:15:40;7.22;;;2.67;;
68214;SDS011;55036;52.138;5.236;2022-12-29T17:18:06;12.73;;;2.80;;
68214;SDS011;55036;52.138;5.236;2022-12-29T17:20:39;9.25;;;1.98;;
68214;SDS011;55036;52.138;5.236;2022-12-29T17:23:10;6.85;;;1.40;;
68214;SDS011;55036;52.138;5.236;2022-12-29T17:25:49;7.95;;;1.77;;
68214;SDS011;55036;52.138;5.236;2022-12-29T17:28:20;13.10;;;2.38;;
68214;SDS011;55036;52.138;5.236;2022-12-29T17:30:49;14.00;;;2.45;;